sensor_id;sensor_type;location;lat;lon;timestamp;temperature;humidity
31619;DHT22;18230;51.502;7.108;2022-11-02T00:01:59;14.10;99.90
31619;DHT22;18230;51.502;7.108;2022-11-02T00:07:00;14.10;99.90
31619;DHT22;18230;51.502;7.108;2022-11-02T00:12:00;14.10;99.90
31619;DHT22;18230;51.502;7.108;2022-11-02T00:17:01;14.10;99.90
31619;DHT22;18230;51.502;7.108;2022-11-02T00:22:02;14.20;99.90
31619;DHT22;18230;51.502;7.108;2022-11-02T00:27:03;14.20;99.90
31619;DHT22;18230;51.502;7.108;2022-11-02T00:32:04;14.20;99.90
31619;DHT22;18230;51.502;7.108;2022-11-02T00:37:04;14.20;99.90
31619;DHT22;18230;51.502;7.108;2022-11-02T00:42:05;14.20;99.90
31619;DHT22;18230;51.502;7.108;2022-11-02T00:47:06;14.20;99.90
31619;DHT22;18230;51.502;7.108;2022-11-02T00:52:06;14.20;99.90
31619;DHT22;18230;51.502;7.108;2022-11-02T00:57:07;14.20;99.90
31619;DHT22;18230;51.502;7.108;2022-11-02T01:02:09;14.20;99.90
31619;DHT22;18230;51.502;7.108;2022-11-02T01:07:10;14.20;99.90
31619;DHT22;18230;51.502;7.108;2022-11-02T01:12:10;14.20;99.90
31619;DHT22;18230;51.502;7.108;2022-11-02T01:17:11;14.20;99.90
31619;DHT22;18230;51.502;7.108;2022-11-02T01:22:12;14.20;99.90
31619;DHT22;18230;51.502;7.108;2022-11-02T01:27:12;14.10;99.90
31619;DHT22;18230;51.502;7.108;2022-11-02T01:32:13;14.10;99.90
31619;DHT22;18230;51.502;7.108;2022-11-02T01:37:14;14.10;99.90
31619;DHT22;18230;51.502;7.108;2022-11-02T01:42:17;14.00;99.90
31619;DHT22;18230;51.502;7.108;2022-11-02T01:52:21;14.00;99.90
31619;DHT22;18230;51.502;7.108;2022-11-02T01:57:37;13.90;99.90
31619;DHT22;18230;51.502;7.108;2022-11-02T02:02:46;13.80;99.90
31619;DHT22;18230;51.502;7.108;2022-11-02T02:07:49;13.90;99.90
31619;DHT22;18230;51.502;7.108;2022-11-02T02:12:50;13.90;99.90
31619;DHT22;18230;51.502;7.108;2022-11-02T02:18:07;14.00;99.90
31619;DHT22;18230;51.502;7.108;2022-11-02T02:23:43;14.00;99.90
31619;DHT22;18230;51.502;7.108;2022-11-02T02:29:06;14.00;99.90
31619;DHT22;18230;51.502;7.108;2022-11-02T02:34:18;13.90;99.90
31619;DHT22;18230;51.502;7.108;2022-11-02T02:50:24;13.70;99.90
31619;DHT22;18230;51.502;7.108;2022-11-02T02:55:31;13.80;99.90
31619;DHT22;18230;51.502;7.108;2022-11-02T03:00:35;13.80;99.90
31619;DHT22;18230;51.502;7.108;2022-11-02T03:05:36;13.80;99.90
31619;DHT22;18230;51.502;7.108;2022-11-02T03:10:47;13.80;99.90
31619;DHT22;18230;51.502;7.108;2022-11-02T03:16:19;13.80;99.90
31619;DHT22;18230;51.502;7.108;2022-11-02T03:21:29;13.80;99.90
31619;DHT22;18230;51.502;7.108;2022-11-02T03:26:46;13.70;99.90
31619;DHT22;18230;51.502;7.108;2022-11-02T03:31:54;13.60;99.90
31619;DHT22;18230;51.502;7.108;2022-11-02T03:37:15;13.50;99.90
31619;DHT22;18230;51.502;7.108;2022-11-02T03:42:21;13.60;99.90
31619;DHT22;18230;51.502;7.108;2022-11-02T03:47:25;13.50;99.90
31619;DHT22;18230;51.502;7.108;2022-11-02T03:52:36;13.50;99.90
31619;DHT22;18230;51.502;7.108;2022-11-02T03:57:57;13.60;99.90
31619;DHT22;18230;51.502;7.108;2022-11-02T04:02:59;13.50;99.90
31619;DHT22;18230;51.502;7.108;2022-11-02T04:08:03;13.50;99.90
31619;DHT22;18230;51.502;7.108;2022-11-02T04:13:23;13.60;99.90
31619;DHT22;18230;51.502;7.108;2022-11-02T04:18:43;13.60;99.90
31619;DHT22;18230;51.502;7.108;2022-11-02T04:24:02;13.60;99.90
31619;DHT22;18230;51.502;7.108;2022-11-02T04:29:21;13.60;99.90
31619;DHT22;18230;51.502;7.108;2022-11-02T04:34:22;13.50;99.90
31619;DHT22;18230;51.502;7.108;2022-11-02T04:39:22;13.50;99.90
31619;DHT22;18230;51.502;7.108;2022-11-02T04:44:23;13.50;99.90
31619;DHT22;18230;51.502;7.108;2022-11-02T04:49:23;13.50;99.90
31619;DHT22;18230;51.502;7.108;2022-11-02T04:54:24;13.40;99.90
31619;DHT22;18230;51.502;7.108;2022-11-02T04:59:26;13.40;99.90
31619;DHT22;18230;51.502;7.108;2022-11-02T05:04:27;13.40;99.90
31619;DHT22;18230;51.502;7.108;2022-11-02T05:09:27;13.40;99.90
31619;DHT22;18230;51.502;7.108;2022-11-02T05:14:28;13.40;99.90
31619;DHT22;18230;51.502;7.108;2022-11-02T05:19:28;13.40;99.90
31619;DHT22;18230;51.502;7.108;2022-11-02T05:24:29;13.40;99.90
31619;DHT22;18230;51.502;7.108;2022-11-02T05:29:30;13.40;99.90
31619;DHT22;18230;51.502;7.108;2022-11-02T05:34:30;13.40;99.90
31619;DHT22;18230;51.502;7.108;2022-11-02T05:39:31;13.40;99.90
31619;DHT22;18230;51.502;7.108;2022-11-02T05:44:32;13.40;99.90
31619;DHT22;18230;51.502;7.108;2022-11-02T05:49:33;13.30;99.90
31619;DHT22;18230;51.502;7.108;2022-11-02T05:54:34;13.30;99.90
31619;DHT22;18230;51.502;7.108;2022-11-02T05:59:34;13.30;99.90
31619;DHT22;18230;51.502;7.108;2022-11-02T06:10:32;13.20;99.90
31619;DHT22;18230;51.502;7.108;2022-11-02T06:15:33;13.10;99.90
31619;DHT22;18230;51.502;7.108;2022-11-02T06:20:34;13.10;99.90
31619;DHT22;18230;51.502;7.108;2022-11-02T06:25:35;13.10;99.90
31619;DHT22;18230;51.502;7.108;2022-11-02T06:30:35;13.10;99.90
31619;DHT22;18230;51.502;7.108;2022-11-02T06:35:36;13.00;99.90
31619;DHT22;18230;51.502;7.108;2022-11-02T06:40:37;13.10;99.90
31619;DHT22;18230;51.502;7.108;2022-11-02T06:45:39;13.10;99.90
31619;DHT22;18230;51.502;7.108;2022-11-02T06:50:39;13.20;99.90
31619;DHT22;18230;51.502;7.108;2022-11-02T06:55:40;13.20;99.90
31619;DHT22;18230;51.502;7.108;2022-11-02T07:00:40;13.20;99.90
31619;DHT22;18230;51.502;7.108;2022-11-02T07:05:41;13.20;99.90
31619;DHT22;18230;51.502;7.108;2022-11-02T07:10:42;13.20;99.90
31619;DHT22;18230;51.502;7.108;2022-11-02T07:15:42;13.20;99.90
31619;DHT22;18230;51.502;7.108;2022-11-02T07:20:43;13.20;99.90
31619;DHT22;18230;51.502;7.108;2022-11-02T07:25:44;13.20;99.90
31619;DHT22;18230;51.502;7.108;2022-11-02T07:30:44;13.20;99.90
31619;DHT22;18230;51.502;7.108;2022-11-02T07:35:45;13.20;99.90
31619;DHT22;18230;51.502;7.108;2022-11-02T07:40:48;13.20;99.90
31619;DHT22;18230;51.502;7.108;2022-11-02T07:45:50;13.20;99.90
31619;DHT22;18230;51.502;7.108;2022-11-02T07:50:50;13.20;99.90
31619;DHT22;18230;51.502;7.108;2022-11-02T07:55:51;13.30;99.90
31619;DHT22;18230;51.502;7.108;2022-11-02T08:00:52;13.30;99.90
31619;DHT22;18230;51.502;7.108;2022-11-02T08:05:54;13.30;99.90
31619;DHT22;18230;51.502;7.108;2022-11-02T08:10:54;13.30;99.90
31619;DHT22;18230;51.502;7.108;2022-11-02T08:16:02;13.40;99.90
31619;DHT22;18230;51.502;7.108;2022-11-02T08:21:03;13.70;99.90
31619;DHT22;18230;51.502;7.108;2022-11-02T08:26:03;13.80;99.90
31619;DHT22;18230;51.502;7.108;2022-11-02T08:31:05;13.90;99.90
31619;DHT22;18230;51.502;7.108;2022-11-02T08:36:09;13.90;99.90
31619;DHT22;18230;51.502;7.108;2022-11-02T08:41:10;14.00;99.90
31619;DHT22;18230;51.502;7.108;2022-11-02T08:46:14;13.90;99.90
31619;DHT22;18230;51.502;7.108;2022-11-02T08:51:14;13.80;99.90
31619;DHT22;18230;51.502;7.108;2022-11-02T08:56:15;13.80;99.90
31619;DHT22;18230;51.502;7.108;2022-11-02T09:01:16;13.80;99.90
31619;DHT22;18230;51.502;7.108;2022-11-02T09:06:16;13.80;99.90
31619;DHT22;18230;51.502;7.108;2022-11-02T09:11:17;13.80;99.90
31619;DHT22;18230;51.502;7.108;2022-11-02T09:16:18;13.80;99.90
31619;DHT22;18230;51.502;7.108;2022-11-02T09:21:18;13.90;99.90
31619;DHT22;18230;51.502;7.108;2022-11-02T09:26:19;13.80;99.90
31619;DHT22;18230;51.502;7.108;2022-11-02T09:31:20;13.90;99.90
31619;DHT22;18230;51.502;7.108;2022-11-02T09:36:20;14.20;99.90
31619;DHT22;18230;51.502;7.108;2022-11-02T09:41:42;14.30;99.90
31619;DHT22;18230;51.502;7.108;2022-11-02T09:46:45;14.40;99.90
31619;DHT22;18230;51.502;7.108;2022-11-02T09:51:50;14.40;99.90
31619;DHT22;18230;51.502;7.108;2022-11-02T09:56:55;14.30;99.90
31619;DHT22;18230;51.502;7.108;2022-11-02T10:02:28;14.30;99.90
31619;DHT22;18230;51.502;7.108;2022-11-02T10:18:03;14.10;99.90
31619;DHT22;18230;51.502;7.108;2022-11-02T10:23:07;14.20;99.90
31619;DHT22;18230;51.502;7.108;2022-11-02T10:28:17;14.50;99.90
31619;DHT22;18230;51.502;7.108;2022-11-02T10:33:24;14.70;99.90
31619;DHT22;18230;51.502;7.108;2022-11-02T10:54:13;14.70;99.90
31619;DHT22;18230;51.502;7.108;2022-11-02T10:59:19;14.80;99.90
31619;DHT22;18230;51.502;7.108;2022-11-02T11:04:27;15.10;99.90
31619;DHT22;18230;51.502;7.108;2022-11-02T11:09:37;15.10;99.90
31619;DHT22;18230;51.502;7.108;2022-11-02T11:14:45;15.30;99.90
31619;DHT22;18230;51.502;7.108;2022-11-02T11:19:50;15.50;99.90
31619;DHT22;18230;51.502;7.108;2022-11-02T11:24:53;15.70;99.90
31619;DHT22;18230;51.502;7.108;2022-11-02T11:35:37;15.20;99.90
31619;DHT22;18230;51.502;7.108;2022-11-02T11:40:43;15.10;99.90
31619;DHT22;18230;51.502;7.108;2022-11-02T11:46:02;15.00;99.90
31619;DHT22;18230;51.502;7.108;2022-11-02T11:51:04;15.00;99.90
31619;DHT22;18230;51.502;7.108;2022-11-02T11:56:24;15.10;99.90
31619;DHT22;18230;51.502;7.108;2022-11-02T12:01:25;15.30;99.90
31619;DHT22;18230;51.502;7.108;2022-11-02T12:06:32;15.30;99.90
31619;DHT22;18230;51.502;7.108;2022-11-02T12:48:00;15.40;99.90
31619;DHT22;18230;51.502;7.108;2022-11-02T12:53:33;15.30;99.90
31619;DHT22;18230;51.502;7.108;2022-11-02T12:58:38;15.20;99.90
31619;DHT22;18230;51.502;7.108;2022-11-02T13:03:48;15.40;99.90
31619;DHT22;18230;51.502;7.108;2022-11-02T13:14:19;15.50;99.90
31619;DHT22;18230;51.502;7.108;2022-11-02T13:19:29;15.80;99.90
31619;DHT22;18230;51.502;7.108;2022-11-02T13:24:39;15.90;99.90
31619;DHT22;18230;51.502;7.108;2022-11-02T13:29:47;15.90;99.90
31619;DHT22;18230;51.502;7.108;2022-11-02T13:34:49;15.80;99.90
31619;DHT22;18230;51.502;7.108;2022-11-02T13:39:55;15.90;99.90
31619;DHT22;18230;51.502;7.108;2022-11-02T13:50:21;15.90;99.90
31619;DHT22;18230;51.502;7.108;2022-11-02T13:55:32;16.00;99.90
31619;DHT22;18230;51.502;7.108;2022-11-02T14:00:43;16.00;99.90
31619;DHT22;18230;51.502;7.108;2022-11-02T14:05:48;16.10;99.90
31619;DHT22;18230;51.502;7.108;2022-11-02T14:22:04;16.10;99.90
31619;DHT22;18230;51.502;7.108;2022-11-02T14:42:51;15.80;99.90
31619;DHT22;18230;51.502;7.108;2022-11-02T14:48:00;15.90;99.90
31619;DHT22;18230;51.502;7.108;2022-11-02T14:53:08;15.90;99.90
31619;DHT22;18230;51.502;7.108;2022-11-02T14:58:22;16.00;99.90
31619;DHT22;18230;51.502;7.108;2022-11-02T15:08:28;16.10;99.90
31619;DHT22;18230;51.502;7.108;2022-11-02T15:13:34;16.10;99.90
31619;DHT22;18230;51.502;7.108;2022-11-02T15:18:44;16.00;99.90
31619;DHT22;18230;51.502;7.108;2022-11-02T15:29:00;15.70;99.90
31619;DHT22;18230;51.502;7.108;2022-11-02T15:34:13;15.50;99.90
31619;DHT22;18230;51.502;7.108;2022-11-02T15:39:19;15.40;99.90
31619;DHT22;18230;51.502;7.108;2022-11-02T15:50:23;15.10;99.90
31619;DHT22;18230;51.502;7.108;2022-11-02T16:07:19;14.80;99.90
31619;DHT22;18230;51.502;7.108;2022-11-02T16:18:29;14.60;99.90
31619;DHT22;18230;51.502;7.108;2022-11-02T16:23:46;14.50;99.90
31619;DHT22;18230;51.502;7.108;2022-11-02T16:28:59;14.40;99.90
31619;DHT22;18230;51.502;7.108;2022-11-02T16:34:09;14.40;99.90
31619;DHT22;18230;51.502;7.108;2022-11-02T16:44:27;14.30;99.90
31619;DHT22;18230;51.502;7.108;2022-11-02T16:49:28;14.20;99.90
31619;DHT22;18230;51.502;7.108;2022-11-02T16:54:40;14.10;99.90
31619;DHT22;18230;51.502;7.108;2022-11-02T16:59:52;14.00;99.90
31619;DHT22;18230;51.502;7.108;2022-11-02T17:04:55;14.00;99.90
31619;DHT22;18230;51.502;7.108;2022-11-02T17:09:58;13.90;99.90
31619;DHT22;18230;51.502;7.108;2022-11-02T17:15:02;13.90;99.90
31619;DHT22;18230;51.502;7.108;2022-11-02T17:25:26;13.80;99.90
31619;DHT22;18230;51.502;7.108;2022-11-02T17:35:34;13.70;99.90
31619;DHT22;18230;51.502;7.108;2022-11-02T17:40:36;13.60;99.90
31619;DHT22;18230;51.502;7.108;2022-11-02T17:45:37;13.60;99.90
31619;DHT22;18230;51.502;7.108;2022-11-02T17:50:39;13.50;99.90
31619;DHT22;18230;51.502;7.108;2022-11-02T17:55:40;13.40;99.90
31619;DHT22;18230;51.502;7.108;2022-11-02T18:00:41;13.40;99.90
31619;DHT22;18230;51.502;7.108;2022-11-02T18:05:42;13.30;99.90
31619;DHT22;18230;51.502;7.108;2022-11-02T18:10:45;13.30;99.90
31619;DHT22;18230;51.502;7.108;2022-11-02T18:15:46;13.10;99.90
31619;DHT22;18230;51.502;7.108;2022-11-02T18:20:47;13.20;99.90
31619;DHT22;18230;51.502;7.108;2022-11-02T18:25:47;13.10;99.90
31619;DHT22;18230;51.502;7.108;2022-11-02T18:30:48;13.00;99.90
31619;DHT22;18230;51.502;7.108;2022-11-02T18:35:49;13.00;99.90
31619;DHT22;18230;51.502;7.108;2022-11-02T18:40:49;12.90;99.90
31619;DHT22;18230;51.502;7.108;2022-11-02T18:45:50;12.90;99.90
31619;DHT22;18230;51.502;7.108;2022-11-02T18:50:50;12.90;99.90
31619;DHT22;18230;51.502;7.108;2022-11-02T18:55:51;12.90;99.90
31619;DHT22;18230;51.502;7.108;2022-11-02T19:00:52;12.90;99.90
31619;DHT22;18230;51.502;7.108;2022-11-02T19:05:55;12.90;99.90
31619;DHT22;18230;51.502;7.108;2022-11-02T19:11:14;12.90;99.90
31619;DHT22;18230;51.502;7.108;2022-11-02T19:16:30;12.80;99.90
31619;DHT22;18230;51.502;7.108;2022-11-02T19:21:32;12.90;99.90
31619;DHT22;18230;51.502;7.108;2022-11-02T19:26:33;12.90;99.90
31619;DHT22;18230;51.502;7.108;2022-11-02T19:31:34;12.90;99.90
31619;DHT22;18230;51.502;7.108;2022-11-02T19:36:35;12.90;99.90
31619;DHT22;18230;51.502;7.108;2022-11-02T19:41:37;13.00;99.90
31619;DHT22;18230;51.502;7.108;2022-11-02T19:46:37;13.00;99.90
31619;DHT22;18230;51.502;7.108;2022-11-02T19:51:38;13.00;99.90
31619;DHT22;18230;51.502;7.108;2022-11-02T19:56:39;13.00;99.90
31619;DHT22;18230;51.502;7.108;2022-11-02T20:01:41;13.00;99.90
31619;DHT22;18230;51.502;7.108;2022-11-02T20:06:42;13.00;99.90
31619;DHT22;18230;51.502;7.108;2022-11-02T20:11:44;13.00;99.90
31619;DHT22;18230;51.502;7.108;2022-11-02T20:16:45;13.00;99.90
31619;DHT22;18230;51.502;7.108;2022-11-02T20:21:46;13.00;99.90
31619;DHT22;18230;51.502;7.108;2022-11-02T20:26:46;12.90;99.90
31619;DHT22;18230;51.502;7.108;2022-11-02T20:31:47;12.90;99.90
31619;DHT22;18230;51.502;7.108;2022-11-02T20:36:48;12.90;99.90
31619;DHT22;18230;51.502;7.108;2022-11-02T20:41:49;12.90;99.90
31619;DHT22;18230;51.502;7.108;2022-11-02T20:46:55;12.90;99.90
31619;DHT22;18230;51.502;7.108;2022-11-02T20:51:56;12.90;99.90
31619;DHT22;18230;51.502;7.108;2022-11-02T20:56:57;12.80;99.90
31619;DHT22;18230;51.502;7.108;2022-11-02T21:01:58;12.80;99.90
31619;DHT22;18230;51.502;7.108;2022-11-02T21:06:59;12.80;99.90
31619;DHT22;18230;51.502;7.108;2022-11-02T21:11:59;12.80;99.90
31619;DHT22;18230;51.502;7.108;2022-11-02T21:17:18;12.70;99.90
31619;DHT22;18230;51.502;7.108;2022-11-02T21:22:19;12.80;99.90
31619;DHT22;18230;51.502;7.108;2022-11-02T21:27:19;12.80;99.90
31619;DHT22;18230;51.502;7.108;2022-11-02T21:32:20;12.70;99.90
31619;DHT22;18230;51.502;7.108;2022-11-02T21:37:21;12.70;99.90
31619;DHT22;18230;51.502;7.108;2022-11-02T21:42:21;12.70;99.90
31619;DHT22;18230;51.502;7.108;2022-11-02T21:47:22;12.70;99.90
31619;DHT22;18230;51.502;7.108;2022-11-02T21:52:23;12.70;99.90
31619;DHT22;18230;51.502;7.108;2022-11-02T21:57:23;12.70;99.90
31619;DHT22;18230;51.502;7.108;2022-11-02T22:02:24;12.60;99.90
31619;DHT22;18230;51.502;7.108;2022-11-02T22:07:25;12.60;99.90
31619;DHT22;18230;51.502;7.108;2022-11-02T22:12:25;12.60;99.90
31619;DHT22;18230;51.502;7.108;2022-11-02T22:17:44;12.60;99.90
31619;DHT22;18230;51.502;7.108;2022-11-02T22:22:45;12.50;99.90
31619;DHT22;18230;51.502;7.108;2022-11-02T22:27:45;12.50;99.90
31619;DHT22;18230;51.502;7.108;2022-11-02T22:32:46;12.50;99.90
31619;DHT22;18230;51.502;7.108;2022-11-02T22:37:47;12.50;99.90
31619;DHT22;18230;51.502;7.108;2022-11-02T22:43:06;12.50;99.90
31619;DHT22;18230;51.502;7.108;2022-11-02T22:48:06;12.50;99.90
31619;DHT22;18230;51.502;7.108;2022-11-02T22:53:07;12.50;99.90
31619;DHT22;18230;51.502;7.108;2022-11-02T22:58:07;12.60;99.90
31619;DHT22;18230;51.502;7.108;2022-11-02T23:03:08;12.50;99.90
31619;DHT22;18230;51.502;7.108;2022-11-02T23:08:09;12.50;99.90
31619;DHT22;18230;51.502;7.108;2022-11-02T23:13:10;12.50;99.90
31619;DHT22;18230;51.502;7.108;2022-11-02T23:18:10;12.50;99.90
31619;DHT22;18230;51.502;7.108;2022-11-02T23:23:11;12.50;99.90
31619;DHT22;18230;51.502;7.108;2022-11-02T23:28:30;12.50;99.90
31619;DHT22;18230;51.502;7.108;2022-11-02T23:33:49;12.50;99.90
31619;DHT22;18230;51.502;7.108;2022-11-02T23:38:50;12.50;99.90
31619;DHT22;18230;51.502;7.108;2022-11-02T23:44:09;12.50;99.90
31619;DHT22;18230;51.502;7.108;2022-11-02T23:49:15;12.50;99.90
31619;DHT22;18230;51.502;7.108;2022-11-02T23:54:16;12.50;99.90
31619;DHT22;18230;51.502;7.108;2022-11-02T23:59:36;12.50;99.90
